sensor_id;sensor_type;location;lat;lon;timestamp;P1;durP1;ratioP1;P2;durP2;ratioP2
24631;SDS011;59977;48.782;9.190;2023-08-06T00:01:53;5.90;;;3.83;;
24631;SDS011;59977;48.782;9.190;2023-08-06T00:04:19;5.03;;;3.30;;
24631;SDS011;59977;48.782;9.190;2023-08-06T00:06:44;3.72;;;3.22;;
24631;SDS011;59977;48.782;9.190;2023-08-06T00:09:10;5.53;;;4.10;;
24631;SDS011;59977;48.782;9.190;2023-08-06T00:11:35;10.25;;;3.92;;
24631;SDS011;59977;48.782;9.190;2023-08-06T00:14:01;10.38;;;3.72;;
24631;SDS011;59977;48.782;9.190;2023-08-06T00:16:27;8.43;;;3.67;;
24631;SDS011;59977;48.782;9.190;2023-08-06T00:18:53;9.40;;;3.80;;
24631;SDS011;59977;48.782;9.190;2023-08-06T00:21:19;7.53;;;3.67;;
24631;SDS011;59977;48.782;9.190;2023-08-06T00:23:45;6.82;;;3.97;;
24631;SDS011;59977;48.782;9.190;2023-08-06T00:26:10;4.38;;;3.60;;
24631;SDS011;59977;48.782;9.190;2023-08-06T00:28:36;5.93;;;3.80;;
24631;SDS011;59977;48.782;9.190;2023-08-06T00:31:02;6.03;;;3.67;;
24631;SDS011;59977;48.782;9.190;2023-08-06T00:33:28;6.20;;;3.65;;
24631;SDS011;59977;48.782;9.190;2023-08-06T00:35:53;6.47;;;4.10;;
24631;SDS011;59977;48.782;9.190;2023-08-06T00:38:19;6.22;;;3.70;;
24631;SDS011;59977;48.782;9.190;2023-08-06T00:40:45;5.20;;;3.58;;
24631;SDS011;59977;48.782;9.190;2023-08-06T00:43:12;5.50;;;3.92;;
24631;SDS011;59977;48.782;9.190;2023-08-06T00:45:38;5.43;;;4.00;;
24631;SDS011;59977;48.782;9.190;2023-08-06T00:48:04;8.70;;;4.30;;
24631;SDS011;59977;48.782;9.190;2023-08-06T00:50:31;9.05;;;3.55;;
24631;SDS011;59977;48.782;9.190;2023-08-06T00:52:57;6.45;;;4.07;;
24631;SDS011;59977;48.782;9.190;2023-08-06T00:55:23;7.53;;;3.72;;
24631;SDS011;59977;48.782;9.190;2023-08-06T00:57:50;7.32;;;3.67;;
24631;SDS011;59977;48.782;9.190;2023-08-06T01:00:17;5.95;;;3.38;;
24631;SDS011;59977;48.782;9.190;2023-08-06T01:02:44;3.75;;;2.97;;
24631;SDS011;59977;48.782;9.190;2023-08-06T01:05:11;5.70;;;2.85;;
24631;SDS011;59977;48.782;9.190;2023-08-06T01:07:46;9.48;;;2.90;;
24631;SDS011;59977;48.782;9.190;2023-08-06T01:13:23;3.17;;;2.30;;
24631;SDS011;59977;48.782;9.190;2023-08-06T01:15:51;4.82;;;2.63;;
24631;SDS011;59977;48.782;9.190;2023-08-06T01:18:22;7.88;;;2.60;;
24631;SDS011;59977;48.782;9.190;2023-08-06T01:20:48;3.53;;;2.55;;
24631;SDS011;59977;48.782;9.190;2023-08-06T01:23:15;9.70;;;2.38;;
24631;SDS011;59977;48.782;9.190;2023-08-06T01:26:00;2.65;;;2.10;;
24631;SDS011;59977;48.782;9.190;2023-08-06T01:28:44;5.80;;;2.60;;
24631;SDS011;59977;48.782;9.190;2023-08-06T01:33:57;3.50;;;2.38;;
24631;SDS011;59977;48.782;9.190;2023-08-06T01:36:23;5.18;;;2.40;;
24631;SDS011;59977;48.782;9.190;2023-08-06T01:38:51;4.75;;;2.58;;
24631;SDS011;59977;48.782;9.190;2023-08-06T01:41:18;3.80;;;2.40;;
24631;SDS011;59977;48.782;9.190;2023-08-06T01:43:44;2.65;;;2.20;;
24631;SDS011;59977;48.782;9.190;2023-08-06T01:46:09;3.92;;;2.28;;
24631;SDS011;59977;48.782;9.190;2023-08-06T01:48:35;4.63;;;2.63;;
24631;SDS011;59977;48.782;9.190;2023-08-06T01:51:04;3.72;;;2.22;;
24631;SDS011;59977;48.782;9.190;2023-08-06T01:53:30;10.13;;;2.30;;
24631;SDS011;59977;48.782;9.190;2023-08-06T01:55:56;6.80;;;2.30;;
24631;SDS011;59977;48.782;9.190;2023-08-06T01:58:22;6.57;;;2.55;;
24631;SDS011;59977;48.782;9.190;2023-08-06T02:00:48;3.95;;;2.50;;
24631;SDS011;59977;48.782;9.190;2023-08-06T02:03:14;4.53;;;2.45;;
24631;SDS011;59977;48.782;9.190;2023-08-06T02:05:40;4.32;;;2.70;;
24631;SDS011;59977;48.782;9.190;2023-08-06T02:08:06;4.85;;;2.17;;
24631;SDS011;59977;48.782;9.190;2023-08-06T02:10:32;5.13;;;2.58;;
24631;SDS011;59977;48.782;9.190;2023-08-06T02:12:58;3.28;;;2.22;;
24631;SDS011;59977;48.782;9.190;2023-08-06T02:15:24;3.25;;;2.20;;
24631;SDS011;59977;48.782;9.190;2023-08-06T02:17:49;3.63;;;2.40;;
24631;SDS011;59977;48.782;9.190;2023-08-06T02:20:15;3.58;;;2.40;;
24631;SDS011;59977;48.782;9.190;2023-08-06T02:22:41;3.80;;;2.25;;
24631;SDS011;59977;48.782;9.190;2023-08-06T02:25:07;3.90;;;2.30;;
24631;SDS011;59977;48.782;9.190;2023-08-06T02:27:33;3.33;;;2.08;;
24631;SDS011;59977;48.782;9.190;2023-08-06T02:29:59;2.95;;;2.15;;
24631;SDS011;59977;48.782;9.190;2023-08-06T02:32:25;6.78;;;2.53;;
24631;SDS011;59977;48.782;9.190;2023-08-06T02:34:51;6.50;;;2.38;;
24631;SDS011;59977;48.782;9.190;2023-08-06T02:37:16;5.63;;;2.38;;
24631;SDS011;59977;48.782;9.190;2023-08-06T02:39:42;2.67;;;2.10;;
24631;SDS011;59977;48.782;9.190;2023-08-06T02:42:08;3.85;;;2.38;;
24631;SDS011;59977;48.782;9.190;2023-08-06T02:44:34;3.95;;;2.17;;
24631;SDS011;59977;48.782;9.190;2023-08-06T02:47:00;3.45;;;2.10;;
24631;SDS011;59977;48.782;9.190;2023-08-06T02:49:26;8.05;;;2.40;;
24631;SDS011;59977;48.782;9.190;2023-08-06T02:51:52;4.35;;;2.35;;
24631;SDS011;59977;48.782;9.190;2023-08-06T02:54:18;4.03;;;2.10;;
24631;SDS011;59977;48.782;9.190;2023-08-06T02:56:44;3.72;;;2.20;;
24631;SDS011;59977;48.782;9.190;2023-08-06T02:59:10;6.32;;;2.40;;
24631;SDS011;59977;48.782;9.190;2023-08-06T03:01:36;4.43;;;2.60;;
24631;SDS011;59977;48.782;9.190;2023-08-06T03:04:02;3.65;;;2.08;;
24631;SDS011;59977;48.782;9.190;2023-08-06T03:06:27;2.83;;;1.90;;
24631;SDS011;59977;48.782;9.190;2023-08-06T03:08:53;5.00;;;2.13;;
24631;SDS011;59977;48.782;9.190;2023-08-06T03:11:18;4.47;;;2.20;;
24631;SDS011;59977;48.782;9.190;2023-08-06T03:13:44;4.20;;;2.15;;
24631;SDS011;59977;48.782;9.190;2023-08-06T03:16:10;5.35;;;2.50;;
24631;SDS011;59977;48.782;9.190;2023-08-06T03:18:35;3.95;;;2.00;;
24631;SDS011;59977;48.782;9.190;2023-08-06T03:21:01;3.25;;;1.90;;
24631;SDS011;59977;48.782;9.190;2023-08-06T03:23:26;4.00;;;1.85;;
24631;SDS011;59977;48.782;9.190;2023-08-06T03:25:52;3.20;;;1.85;;
24631;SDS011;59977;48.782;9.190;2023-08-06T03:28:17;3.08;;;1.88;;
24631;SDS011;59977;48.782;9.190;2023-08-06T03:30:43;4.93;;;2.20;;
24631;SDS011;59977;48.782;9.190;2023-08-06T03:33:09;2.45;;;1.83;;
24631;SDS011;59977;48.782;9.190;2023-08-06T03:35:34;3.45;;;2.08;;
24631;SDS011;59977;48.782;9.190;2023-08-06T03:38:00;9.75;;;2.15;;
24631;SDS011;59977;48.782;9.190;2023-08-06T03:40:25;8.30;;;1.92;;
24631;SDS011;59977;48.782;9.190;2023-08-06T03:42:51;4.03;;;2.15;;
24631;SDS011;59977;48.782;9.190;2023-08-06T03:45:17;4.82;;;2.00;;
24631;SDS011;59977;48.782;9.190;2023-08-06T03:47:42;5.72;;;1.90;;
24631;SDS011;59977;48.782;9.190;2023-08-06T03:50:08;6.10;;;2.08;;
24631;SDS011;59977;48.782;9.190;2023-08-06T03:52:34;6.53;;;2.00;;
24631;SDS011;59977;48.782;9.190;2023-08-06T03:54:59;5.03;;;2.00;;
24631;SDS011;59977;48.782;9.190;2023-08-06T03:57:25;6.00;;;2.20;;
24631;SDS011;59977;48.782;9.190;2023-08-06T03:59:50;4.13;;;2.10;;
24631;SDS011;59977;48.782;9.190;2023-08-06T04:02:16;8.38;;;2.30;;
24631;SDS011;59977;48.782;9.190;2023-08-06T04:04:42;3.55;;;1.85;;
24631;SDS011;59977;48.782;9.190;2023-08-06T04:07:07;5.65;;;2.20;;
24631;SDS011;59977;48.782;9.190;2023-08-06T04:09:33;9.50;;;1.70;;
24631;SDS011;59977;48.782;9.190;2023-08-06T04:11:58;5.30;;;2.42;;
24631;SDS011;59977;48.782;9.190;2023-08-06T04:14:26;5.70;;;2.58;;
24631;SDS011;59977;48.782;9.190;2023-08-06T04:16:52;2.60;;;1.92;;
24631;SDS011;59977;48.782;9.190;2023-08-06T04:19:18;5.32;;;1.92;;
24631;SDS011;59977;48.782;9.190;2023-08-06T04:21:44;7.28;;;2.17;;
24631;SDS011;59977;48.782;9.190;2023-08-06T04:24:09;8.35;;;2.50;;
24631;SDS011;59977;48.782;9.190;2023-08-06T04:26:35;5.47;;;2.38;;
24631;SDS011;59977;48.782;9.190;2023-08-06T04:29:00;6.28;;;2.58;;
24631;SDS011;59977;48.782;9.190;2023-08-06T04:31:26;6.30;;;2.55;;
24631;SDS011;59977;48.782;9.190;2023-08-06T04:33:51;4.82;;;2.50;;
24631;SDS011;59977;48.782;9.190;2023-08-06T04:36:17;4.13;;;2.40;;
24631;SDS011;59977;48.782;9.190;2023-08-06T04:38:42;6.60;;;2.30;;
24631;SDS011;59977;48.782;9.190;2023-08-06T04:41:10;6.53;;;2.50;;
24631;SDS011;59977;48.782;9.190;2023-08-06T04:43:36;4.65;;;2.30;;
24631;SDS011;59977;48.782;9.190;2023-08-06T04:46:02;6.97;;;2.50;;
24631;SDS011;59977;48.782;9.190;2023-08-06T04:48:27;5.25;;;2.40;;
24631;SDS011;59977;48.782;9.190;2023-08-06T04:50:53;3.78;;;2.30;;
24631;SDS011;59977;48.782;9.190;2023-08-06T04:53:19;5.28;;;2.05;;
24631;SDS011;59977;48.782;9.190;2023-08-06T04:55:45;6.80;;;2.42;;
24631;SDS011;59977;48.782;9.190;2023-08-06T04:58:10;4.35;;;2.65;;
24631;SDS011;59977;48.782;9.190;2023-08-06T05:00:37;5.50;;;1.85;;
24631;SDS011;59977;48.782;9.190;2023-08-06T05:03:02;9.48;;;1.90;;
24631;SDS011;59977;48.782;9.190;2023-08-06T05:05:28;4.72;;;1.90;;
24631;SDS011;59977;48.782;9.190;2023-08-06T05:07:54;5.47;;;2.10;;
24631;SDS011;59977;48.782;9.190;2023-08-06T05:10:21;6.80;;;2.00;;
24631;SDS011;59977;48.782;9.190;2023-08-06T05:12:50;3.55;;;1.63;;
24631;SDS011;59977;48.782;9.190;2023-08-06T05:15:15;3.92;;;1.83;;
24631;SDS011;59977;48.782;9.190;2023-08-06T05:17:41;3.83;;;1.58;;
24631;SDS011;59977;48.782;9.190;2023-08-06T05:20:06;5.72;;;1.65;;
24631;SDS011;59977;48.782;9.190;2023-08-06T05:22:32;3.63;;;1.65;;
24631;SDS011;59977;48.782;9.190;2023-08-06T05:24:58;4.40;;;1.52;;
24631;SDS011;59977;48.782;9.190;2023-08-06T05:27:23;4.57;;;1.42;;
24631;SDS011;59977;48.782;9.190;2023-08-06T05:29:49;3.22;;;1.50;;
24631;SDS011;59977;48.782;9.190;2023-08-06T05:32:14;2.47;;;1.45;;
24631;SDS011;59977;48.782;9.190;2023-08-06T05:34:40;3.85;;;1.30;;
24631;SDS011;59977;48.782;9.190;2023-08-06T05:37:06;4.72;;;1.60;;
24631;SDS011;59977;48.782;9.190;2023-08-06T05:39:32;3.47;;;1.30;;
24631;SDS011;59977;48.782;9.190;2023-08-06T05:41:57;3.10;;;1.42;;
24631;SDS011;59977;48.782;9.190;2023-08-06T05:44:23;2.28;;;1.40;;
24631;SDS011;59977;48.782;9.190;2023-08-06T05:46:49;2.65;;;1.40;;
24631;SDS011;59977;48.782;9.190;2023-08-06T05:49:15;2.80;;;1.30;;
24631;SDS011;59977;48.782;9.190;2023-08-06T05:51:41;5.55;;;1.20;;
24631;SDS011;59977;48.782;9.190;2023-08-06T05:54:06;2.72;;;1.30;;
24631;SDS011;59977;48.782;9.190;2023-08-06T05:56:32;3.20;;;1.15;;
24631;SDS011;59977;48.782;9.190;2023-08-06T05:58:58;2.92;;;1.40;;
24631;SDS011;59977;48.782;9.190;2023-08-06T06:01:23;2.47;;;1.10;;
24631;SDS011;59977;48.782;9.190;2023-08-06T06:03:49;7.57;;;1.00;;
24631;SDS011;59977;48.782;9.190;2023-08-06T06:06:15;2.92;;;1.17;;
24631;SDS011;59977;48.782;9.190;2023-08-06T06:08:41;3.22;;;1.10;;
24631;SDS011;59977;48.782;9.190;2023-08-06T06:11:07;1.88;;;0.90;;
24631;SDS011;59977;48.782;9.190;2023-08-06T06:13:32;1.92;;;0.80;;
24631;SDS011;59977;48.782;9.190;2023-08-06T06:15:58;3.33;;;1.23;;
24631;SDS011;59977;48.782;9.190;2023-08-06T06:18:23;5.75;;;0.90;;
24631;SDS011;59977;48.782;9.190;2023-08-06T06:20:49;6.35;;;1.10;;
24631;SDS011;59977;48.782;9.190;2023-08-06T06:23:15;2.00;;;0.73;;
24631;SDS011;59977;48.782;9.190;2023-08-06T06:25:44;3.55;;;0.85;;
24631;SDS011;59977;48.782;9.190;2023-08-06T06:28:13;2.35;;;0.80;;
24631;SDS011;59977;48.782;9.190;2023-08-06T06:30:38;3.80;;;0.88;;
24631;SDS011;59977;48.782;9.190;2023-08-06T06:33:05;1.73;;;0.90;;
24631;SDS011;59977;48.782;9.190;2023-08-06T06:35:31;3.22;;;0.90;;
24631;SDS011;59977;48.782;9.190;2023-08-06T06:37:57;1.95;;;0.70;;
24631;SDS011;59977;48.782;9.190;2023-08-06T06:40:22;3.47;;;0.77;;
24631;SDS011;59977;48.782;9.190;2023-08-06T06:42:48;3.25;;;1.02;;
24631;SDS011;59977;48.782;9.190;2023-08-06T06:45:13;4.50;;;0.90;;
24631;SDS011;59977;48.782;9.190;2023-08-06T06:47:39;5.60;;;1.00;;
24631;SDS011;59977;48.782;9.190;2023-08-06T06:50:05;4.78;;;1.35;;
24631;SDS011;59977;48.782;9.190;2023-08-06T06:52:31;2.53;;;0.82;;
24631;SDS011;59977;48.782;9.190;2023-08-06T06:54:56;2.28;;;0.80;;
24631;SDS011;59977;48.782;9.190;2023-08-06T06:57:22;2.50;;;0.90;;
24631;SDS011;59977;48.782;9.190;2023-08-06T06:59:47;4.40;;;0.77;;
24631;SDS011;59977;48.782;9.190;2023-08-06T07:02:13;4.03;;;0.70;;
24631;SDS011;59977;48.782;9.190;2023-08-06T07:04:39;7.05;;;1.05;;
24631;SDS011;59977;48.782;9.190;2023-08-06T07:07:04;3.42;;;0.90;;
24631;SDS011;59977;48.782;9.190;2023-08-06T07:09:30;5.25;;;0.70;;
24631;SDS011;59977;48.782;9.190;2023-08-06T07:11:55;4.78;;;0.90;;
24631;SDS011;59977;48.782;9.190;2023-08-06T07:14:22;3.13;;;0.90;;
24631;SDS011;59977;48.782;9.190;2023-08-06T07:16:50;3.08;;;0.95;;
24631;SDS011;59977;48.782;9.190;2023-08-06T07:19:16;2.05;;;0.80;;
24631;SDS011;59977;48.782;9.190;2023-08-06T07:21:41;2.42;;;0.88;;
24631;SDS011;59977;48.782;9.190;2023-08-06T07:24:07;3.47;;;1.17;;
24631;SDS011;59977;48.782;9.190;2023-08-06T07:26:32;0.65;;;0.60;;
24631;SDS011;59977;48.782;9.190;2023-08-06T07:28:58;2.20;;;0.95;;
24631;SDS011;59977;48.782;9.190;2023-08-06T07:31:23;2.63;;;0.60;;
24631;SDS011;59977;48.782;9.190;2023-08-06T07:33:49;2.58;;;0.80;;
24631;SDS011;59977;48.782;9.190;2023-08-06T07:36:15;2.58;;;0.90;;
24631;SDS011;59977;48.782;9.190;2023-08-06T07:38:40;1.58;;;0.80;;
24631;SDS011;59977;48.782;9.190;2023-08-06T07:41:06;1.00;;;0.70;;
24631;SDS011;59977;48.782;9.190;2023-08-06T07:43:32;4.50;;;0.82;;
24631;SDS011;59977;48.782;9.190;2023-08-06T07:45:58;1.42;;;0.80;;
24631;SDS011;59977;48.782;9.190;2023-08-06T07:48:27;2.28;;;0.70;;
24631;SDS011;59977;48.782;9.190;2023-08-06T07:50:53;0.63;;;0.40;;
24631;SDS011;59977;48.782;9.190;2023-08-06T07:53:20;1.10;;;0.63;;
24631;SDS011;59977;48.782;9.190;2023-08-06T07:55:50;1.50;;;0.80;;
24631;SDS011;59977;48.782;9.190;2023-08-06T07:58:17;1.80;;;0.55;;
24631;SDS011;59977;48.782;9.190;2023-08-06T08:00:43;2.20;;;0.60;;
24631;SDS011;59977;48.782;9.190;2023-08-06T08:03:10;2.50;;;0.50;;
24631;SDS011;59977;48.782;9.190;2023-08-06T08:05:40;2.65;;;0.65;;
24631;SDS011;59977;48.782;9.190;2023-08-06T08:08:06;0.63;;;0.40;;
24631;SDS011;59977;48.782;9.190;2023-08-06T08:10:32;1.25;;;0.40;;
24631;SDS011;59977;48.782;9.190;2023-08-06T08:12:58;2.00;;;0.70;;
24631;SDS011;59977;48.782;9.190;2023-08-06T08:15:24;3.25;;;0.50;;
24631;SDS011;59977;48.782;9.190;2023-08-06T08:17:52;1.40;;;0.60;;
24631;SDS011;59977;48.782;9.190;2023-08-06T08:20:18;2.25;;;0.40;;
24631;SDS011;59977;48.782;9.190;2023-08-06T08:22:44;1.15;;;0.50;;
24631;SDS011;59977;48.782;9.190;2023-08-06T08:25:09;1.35;;;0.43;;
24631;SDS011;59977;48.782;9.190;2023-08-06T08:27:35;1.13;;;0.40;;
24631;SDS011;59977;48.782;9.190;2023-08-06T08:30:01;0.55;;;0.30;;
24631;SDS011;59977;48.782;9.190;2023-08-06T08:32:26;0.63;;;0.40;;
24631;SDS011;59977;48.782;9.190;2023-08-06T08:34:52;0.50;;;0.40;;
24631;SDS011;59977;48.782;9.190;2023-08-06T08:37:18;0.85;;;0.30;;
24631;SDS011;59977;48.782;9.190;2023-08-06T08:39:44;0.68;;;0.30;;
24631;SDS011;59977;48.782;9.190;2023-08-06T08:42:10;1.00;;;0.30;;
24631;SDS011;59977;48.782;9.190;2023-08-06T08:44:35;0.80;;;0.40;;
24631;SDS011;59977;48.782;9.190;2023-08-06T08:47:04;1.08;;;0.40;;
24631;SDS011;59977;48.782;9.190;2023-08-06T08:49:31;0.60;;;0.40;;
24631;SDS011;59977;48.782;9.190;2023-08-06T08:51:57;0.47;;;0.38;;
24631;SDS011;59977;48.782;9.190;2023-08-06T08:54:26;0.63;;;0.25;;
24631;SDS011;59977;48.782;9.190;2023-08-06T08:56:53;1.75;;;0.20;;
24631;SDS011;59977;48.782;9.190;2023-08-06T08:59:20;0.30;;;0.30;;
24631;SDS011;59977;48.782;9.190;2023-08-06T09:01:46;2.75;;;0.30;;
24631;SDS011;59977;48.782;9.190;2023-08-06T09:04:15;0.47;;;0.40;;
24631;SDS011;59977;48.782;9.190;2023-08-06T09:06:42;0.40;;;0.40;;
24631;SDS011;59977;48.782;9.190;2023-08-06T09:09:16;0.57;;;0.30;;
24631;SDS011;59977;48.782;9.190;2023-08-06T09:11:46;3.03;;;0.30;;
24631;SDS011;59977;48.782;9.190;2023-08-06T09:14:14;0.30;;;0.30;;
24631;SDS011;59977;48.782;9.190;2023-08-06T09:16:40;0.20;;;0.20;;
24631;SDS011;59977;48.782;9.190;2023-08-06T09:19:12;0.38;;;0.38;;
24631;SDS011;59977;48.782;9.190;2023-08-06T09:21:40;0.30;;;0.30;;
24631;SDS011;59977;48.782;9.190;2023-08-06T09:24:10;0.50;;;0.40;;
24631;SDS011;59977;48.782;9.190;2023-08-06T09:26:40;1.08;;;0.40;;
24631;SDS011;59977;48.782;9.190;2023-08-06T09:29:08;1.13;;;0.38;;
24631;SDS011;59977;48.782;9.190;2023-08-06T09:34:09;0.50;;;0.30;;
24631;SDS011;59977;48.782;9.190;2023-08-06T09:36:39;0.95;;;0.40;;
24631;SDS011;59977;48.782;9.190;2023-08-06T09:39:27;1.65;;;0.30;;
24631;SDS011;59977;48.782;9.190;2023-08-06T09:41:59;0.20;;;0.20;;
24631;SDS011;59977;48.782;9.190;2023-08-06T09:44:27;0.38;;;0.32;;
24631;SDS011;59977;48.782;9.190;2023-08-06T09:46:57;1.02;;;0.60;;
24631;SDS011;59977;48.782;9.190;2023-08-06T09:51:58;0.73;;;0.30;;
24631;SDS011;59977;48.782;9.190;2023-08-06T09:54:25;3.00;;;0.40;;
24631;SDS011;59977;48.782;9.190;2023-08-06T09:56:52;0.80;;;0.30;;
24631;SDS011;59977;48.782;9.190;2023-08-06T09:59:18;0.73;;;0.30;;
24631;SDS011;59977;48.782;9.190;2023-08-06T10:01:45;0.95;;;0.20;;
24631;SDS011;59977;48.782;9.190;2023-08-06T10:04:11;0.30;;;0.30;;
24631;SDS011;59977;48.782;9.190;2023-08-06T10:06:41;0.50;;;0.47;;
24631;SDS011;59977;48.782;9.190;2023-08-06T10:09:08;0.68;;;0.20;;
24631;SDS011;59977;48.782;9.190;2023-08-06T10:11:35;0.68;;;0.40;;
24631;SDS011;59977;48.782;9.190;2023-08-06T10:14:08;0.35;;;0.30;;
24631;SDS011;59977;48.782;9.190;2023-08-06T10:16:36;0.93;;;0.40;;
24631;SDS011;59977;48.782;9.190;2023-08-06T10:19:04;0.40;;;0.30;;
24631;SDS011;59977;48.782;9.190;2023-08-06T10:21:32;0.60;;;0.30;;
24631;SDS011;59977;48.782;9.190;2023-08-06T10:23:57;0.38;;;0.38;;
24631;SDS011;59977;48.782;9.190;2023-08-06T10:26:29;0.30;;;0.30;;
24631;SDS011;59977;48.782;9.190;2023-08-06T10:28:55;0.80;;;0.30;;
24631;SDS011;59977;48.782;9.190;2023-08-06T10:34:46;0.52;;;0.22;;
24631;SDS011;59977;48.782;9.190;2023-08-06T10:37:24;0.70;;;0.30;;
24631;SDS011;59977;48.782;9.190;2023-08-06T10:39:59;0.98;;;0.40;;
24631;SDS011;59977;48.782;9.190;2023-08-06T10:42:28;0.38;;;0.30;;
24631;SDS011;59977;48.782;9.190;2023-08-06T10:47:43;0.55;;;0.30;;
24631;SDS011;59977;48.782;9.190;2023-08-06T10:50:15;0.65;;;0.40;;
24631;SDS011;59977;48.782;9.190;2023-08-06T10:52:46;0.93;;;0.50;;
24631;SDS011;59977;48.782;9.190;2023-08-06T10:55:12;1.67;;;0.45;;
24631;SDS011;59977;48.782;9.190;2023-08-06T10:57:38;1.75;;;0.73;;
24631;SDS011;59977;48.782;9.190;2023-08-06T11:00:05;2.08;;;0.60;;
24631;SDS011;59977;48.782;9.190;2023-08-06T11:02:38;0.63;;;0.50;;
24631;SDS011;59977;48.782;9.190;2023-08-06T11:05:10;1.10;;;0.50;;
24631;SDS011;59977;48.782;9.190;2023-08-06T11:07:36;0.88;;;0.43;;
24631;SDS011;59977;48.782;9.190;2023-08-06T11:12:30;0.30;;;0.30;;
24631;SDS011;59977;48.782;9.190;2023-08-06T11:14:56;0.30;;;0.30;;
24631;SDS011;59977;48.782;9.190;2023-08-06T11:17:22;0.40;;;0.30;;
24631;SDS011;59977;48.782;9.190;2023-08-06T11:19:47;0.20;;;0.20;;
24631;SDS011;59977;48.782;9.190;2023-08-06T11:22:14;0.47;;;0.40;;
24631;SDS011;59977;48.782;9.190;2023-08-06T11:24:40;1.27;;;0.50;;
24631;SDS011;59977;48.782;9.190;2023-08-06T11:27:12;1.55;;;0.60;;
24631;SDS011;59977;48.782;9.190;2023-08-06T11:29:39;0.40;;;0.40;;
24631;SDS011;59977;48.782;9.190;2023-08-06T11:32:08;0.50;;;0.43;;
24631;SDS011;59977;48.782;9.190;2023-08-06T11:34:34;1.48;;;0.50;;
24631;SDS011;59977;48.782;9.190;2023-08-06T11:37:02;0.80;;;0.70;;
24631;SDS011;59977;48.782;9.190;2023-08-06T11:39:30;0.65;;;0.65;;
24631;SDS011;59977;48.782;9.190;2023-08-06T11:41:59;0.50;;;0.50;;
24631;SDS011;59977;48.782;9.190;2023-08-06T11:44:29;1.60;;;0.70;;
24631;SDS011;59977;48.782;9.190;2023-08-06T11:46:59;1.05;;;0.65;;
24631;SDS011;59977;48.782;9.190;2023-08-06T11:52:45;2.35;;;0.80;;
24631;SDS011;59977;48.782;9.190;2023-08-06T11:55:02;1.73;;;0.68;;
24631;SDS011;59977;48.782;9.190;2023-08-06T11:57:33;2.28;;;0.70;;
24631;SDS011;59977;48.782;9.190;2023-08-06T12:00:13;1.88;;;1.08;;
24631;SDS011;59977;48.782;9.190;2023-08-06T12:02:40;3.55;;;1.05;;
24631;SDS011;59977;48.782;9.190;2023-08-06T12:07:42;3.50;;;1.10;;
24631;SDS011;59977;48.782;9.190;2023-08-06T12:10:10;2.85;;;1.10;;
24631;SDS011;59977;48.782;9.190;2023-08-06T12:12:37;1.27;;;0.90;;
24631;SDS011;59977;48.782;9.190;2023-08-06T12:15:03;3.22;;;1.05;;
24631;SDS011;59977;48.782;9.190;2023-08-06T12:17:31;1.90;;;0.80;;
24631;SDS011;59977;48.782;9.190;2023-08-06T12:19:57;2.85;;;0.85;;
24631;SDS011;59977;48.782;9.190;2023-08-06T12:22:22;3.70;;;1.00;;
24631;SDS011;59977;48.782;9.190;2023-08-06T12:24:48;2.72;;;1.00;;
24631;SDS011;59977;48.782;9.190;2023-08-06T12:27:14;1.92;;;1.00;;
24631;SDS011;59977;48.782;9.190;2023-08-06T12:29:45;1.60;;;1.00;;
24631;SDS011;59977;48.782;9.190;2023-08-06T12:32:12;1.58;;;1.20;;
24631;SDS011;59977;48.782;9.190;2023-08-06T12:34:39;2.40;;;1.30;;
24631;SDS011;59977;48.782;9.190;2023-08-06T12:37:05;1.98;;;1.10;;
24631;SDS011;59977;48.782;9.190;2023-08-06T12:39:32;2.97;;;1.13;;
24631;SDS011;59977;48.782;9.190;2023-08-06T12:41:59;2.25;;;1.10;;
24631;SDS011;59977;48.782;9.190;2023-08-06T12:44:25;1.25;;;0.90;;
24631;SDS011;59977;48.782;9.190;2023-08-06T12:46:51;2.72;;;1.08;;
24631;SDS011;59977;48.782;9.190;2023-08-06T12:49:17;1.75;;;1.00;;
24631;SDS011;59977;48.782;9.190;2023-08-06T12:51:45;1.80;;;1.05;;
24631;SDS011;59977;48.782;9.190;2023-08-06T12:54:12;1.58;;;0.82;;
24631;SDS011;59977;48.782;9.190;2023-08-06T12:56:37;0.95;;;0.85;;
24631;SDS011;59977;48.782;9.190;2023-08-06T12:59:03;1.73;;;0.80;;
24631;SDS011;59977;48.782;9.190;2023-08-06T13:01:28;1.75;;;0.90;;
24631;SDS011;59977;48.782;9.190;2023-08-06T13:03:54;2.25;;;0.90;;
24631;SDS011;59977;48.782;9.190;2023-08-06T13:06:19;0.93;;;0.75;;
24631;SDS011;59977;48.782;9.190;2023-08-06T13:08:45;1.13;;;0.90;;
24631;SDS011;59977;48.782;9.190;2023-08-06T13:11:11;2.15;;;0.85;;
24631;SDS011;59977;48.782;9.190;2023-08-06T13:13:36;3.72;;;0.82;;
24631;SDS011;59977;48.782;9.190;2023-08-06T13:16:02;1.45;;;0.80;;
24631;SDS011;59977;48.782;9.190;2023-08-06T13:18:28;2.25;;;0.93;;
24631;SDS011;59977;48.782;9.190;2023-08-06T13:20:54;2.17;;;0.95;;
24631;SDS011;59977;48.782;9.190;2023-08-06T13:23:20;1.35;;;0.82;;
24631;SDS011;59977;48.782;9.190;2023-08-06T13:25:46;6.25;;;0.90;;
24631;SDS011;59977;48.782;9.190;2023-08-06T13:28:11;1.23;;;1.05;;
24631;SDS011;59977;48.782;9.190;2023-08-06T13:30:38;2.42;;;1.00;;
24631;SDS011;59977;48.782;9.190;2023-08-06T13:33:10;1.15;;;0.90;;
24631;SDS011;59977;48.782;9.190;2023-08-06T13:35:36;1.50;;;0.80;;
24631;SDS011;59977;48.782;9.190;2023-08-06T13:38:02;1.05;;;0.80;;
24631;SDS011;59977;48.782;9.190;2023-08-06T13:40:28;1.70;;;0.80;;
24631;SDS011;59977;48.782;9.190;2023-08-06T13:42:55;2.38;;;0.70;;
24631;SDS011;59977;48.782;9.190;2023-08-06T13:45:21;0.90;;;0.70;;
24631;SDS011;59977;48.782;9.190;2023-08-06T13:47:47;1.10;;;0.80;;
24631;SDS011;59977;48.782;9.190;2023-08-06T13:50:12;0.65;;;0.50;;
24631;SDS011;59977;48.782;9.190;2023-08-06T13:52:38;2.10;;;0.70;;
24631;SDS011;59977;48.782;9.190;2023-08-06T13:55:04;2.00;;;0.75;;
24631;SDS011;59977;48.782;9.190;2023-08-06T13:57:30;3.80;;;0.85;;
24631;SDS011;59977;48.782;9.190;2023-08-06T13:59:56;1.50;;;0.70;;
24631;SDS011;59977;48.782;9.190;2023-08-06T14:02:22;1.10;;;0.50;;
24631;SDS011;59977;48.782;9.190;2023-08-06T14:04:48;1.52;;;0.70;;
24631;SDS011;59977;48.782;9.190;2023-08-06T14:07:14;3.45;;;0.60;;
24631;SDS011;59977;48.782;9.190;2023-08-06T14:09:39;1.02;;;0.70;;
24631;SDS011;59977;48.782;9.190;2023-08-06T14:12:06;3.47;;;0.68;;
24631;SDS011;59977;48.782;9.190;2023-08-06T14:14:32;1.45;;;0.68;;
24631;SDS011;59977;48.782;9.190;2023-08-06T14:16:58;2.30;;;0.70;;
24631;SDS011;59977;48.782;9.190;2023-08-06T14:19:23;1.08;;;0.50;;
24631;SDS011;59977;48.782;9.190;2023-08-06T14:21:49;0.65;;;0.60;;
24631;SDS011;59977;48.782;9.190;2023-08-06T14:24:15;1.50;;;0.80;;
24631;SDS011;59977;48.782;9.190;2023-08-06T14:26:40;1.92;;;0.75;;
24631;SDS011;59977;48.782;9.190;2023-08-06T14:29:06;1.23;;;0.80;;
24631;SDS011;59977;48.782;9.190;2023-08-06T14:31:32;1.65;;;0.77;;
24631;SDS011;59977;48.782;9.190;2023-08-06T14:33:57;6.22;;;1.00;;
24631;SDS011;59977;48.782;9.190;2023-08-06T14:36:23;2.03;;;0.80;;
24631;SDS011;59977;48.782;9.190;2023-08-06T14:38:49;0.80;;;0.60;;
24631;SDS011;59977;48.782;9.190;2023-08-06T14:41:14;2.45;;;0.70;;
24631;SDS011;59977;48.782;9.190;2023-08-06T14:43:40;0.85;;;0.70;;
24631;SDS011;59977;48.782;9.190;2023-08-06T14:46:05;2.30;;;0.85;;
24631;SDS011;59977;48.782;9.190;2023-08-06T14:48:31;1.33;;;0.70;;
24631;SDS011;59977;48.782;9.190;2023-08-06T14:50:56;0.85;;;0.68;;
24631;SDS011;59977;48.782;9.190;2023-08-06T14:53:22;3.15;;;0.70;;
24631;SDS011;59977;48.782;9.190;2023-08-06T14:55:48;1.88;;;0.80;;
24631;SDS011;59977;48.782;9.190;2023-08-06T14:58:14;0.50;;;0.50;;
24631;SDS011;59977;48.782;9.190;2023-08-06T15:00:39;2.03;;;0.80;;
24631;SDS011;59977;48.782;9.190;2023-08-06T15:03:05;1.40;;;0.82;;
24631;SDS011;59977;48.782;9.190;2023-08-06T15:05:31;1.67;;;0.95;;
24631;SDS011;59977;48.782;9.190;2023-08-06T15:07:56;1.02;;;0.82;;
24631;SDS011;59977;48.782;9.190;2023-08-06T15:10:22;1.60;;;0.80;;